| ตารางข้อมูล | 4529T1 | 4529T2 | 4529T3 | 4529T4 | TH20402 | TH452-9A | TH452-9D | TH814 | ค้นข้อมูล1 | ค้นข้อมูล2 | ค่าสูงสุด-ต่ำสุด |  

Select Sensor -->| 20402 | 452-9A | 452-9D | 4529T1 | 4529T2 | 4529T3 | 4529T4 | 814 | หน้าจอย่อ | 4529 |
Data of room  452-9A

IDRoomDate  Temp  Humidity
 183621  452-9A  2021-03-01 18:27:39  32.3  79.1 
 183615  452-9A  2021-03-01 18:07:36  32.3  79.9 
 183604  452-9A  2021-03-01 17:27:18  32.5  77.9 
 183593  452-9A  2021-03-01 16:47:06  32.2  81.8 
 183587  452-9A  2021-03-01 16:27:03  31.9  81.1 
 183581  452-9A  2021-03-01 16:06:57  32.0  81.3 
 183575  452-9A  2021-03-01 15:46:51  32.3  79.8 
 183564  452-9A  2021-03-01 15:06:38  32.3  81.5 
 183553  452-9A  2021-03-01 14:26:20  32.0  81.0 
 183547  452-9A  2021-03-01 14:06:16  31.8  81.1 
 183536  452-9A  2021-03-01 13:26:03  31.4  81.7 
 183530  452-9A  2021-03-01 13:05:58  31.2  81.5 
 183519  452-9A  2021-03-01 12:25:45  30.8  82.1 
 183508  452-9A  2021-03-01 11:45:35  30.6  82.3 
 183502  452-9A  2021-03-01 11:25:30  30.1  82.5 
 183496  452-9A  2021-03-01 11:05:24  29.9  83.0 
 183490  452-9A  2021-03-01 10:45:20  29.8  81.4 
 183484  452-9A  2021-03-01 10:25:14  29.6  81.2 
 183478  452-9A  2021-03-01 10:05:08  29.4  81.5 
 183472  452-9A  2021-03-01 09:45:06  29.4  81.5 
 183466  452-9A  2021-03-01 09:24:57  29.0  82.4 
 183460  452-9A  2021-03-01 09:04:53  28.9  82.3 
 183449  452-9A  2021-03-01 08:24:36  28.9  82.5 
 183438  452-9A  2021-03-01 07:44:20  28.6  84.6 
 183432  452-9A  2021-03-01 07:24:17  28.6  84.6 
 183426  452-9A  2021-03-01 07:04:11  28.8  84.7 
 183420  452-9A  2021-03-01 06:44:06  27.2  77.0 
 183414  452-9A  2021-03-01 06:24:03  28.4  86.1 
 183408  452-9A  2021-03-01 06:03:59  28.2  86.7 
 183402  452-9A  2021-03-01 05:43:56  28.2  86.7 
 183396  452-9A  2021-03-01 05:23:48  27.7  83.4 
 183390  452-9A  2021-03-01 05:03:42  27.2  76.9 
 183384  452-9A  2021-03-01 04:43:35  27.4  75.3 
 183378  452-9A  2021-03-01 04:23:32  27.2  70.3 
 183372  452-9A  2021-03-01 04:03:28  27.3  67.9 
 183366  452-9A  2021-03-01 03:43:26  27.3  67.9 
 183360  452-9A  2021-03-01 03:23:19  27.1  60.4 
 183354  452-9A  2021-03-01 03:03:17  27.2  60.5 
 183348  452-9A  2021-03-01 02:43:12  27.8  55.9 
 183342  452-9A  2021-03-01 02:23:10  27.9  56.0 
 183336  452-9A  2021-03-01 02:03:05  26.0  46.4 
 183330  452-9A  2021-03-01 01:43:00  26.3  46.9 
 183324  452-9A  2021-03-01 01:22:55  26.7  47.7 
 183318  452-9A  2021-03-01 01:02:52  26.7  47.9 
 183312  452-9A  2021-03-01 00:42:45  27.2  50.0 
 183306  452-9A  2021-03-01 00:22:43  27.2  50.1 
 183300  452-9A  2021-03-01 00:02:37  27.5  51.4 
 183294  452-9A  2021-02-28 23:42:33  27.7  54.3 
 183288  452-9A  2021-02-28 23:22:28  28.2  56.3 
 183282  452-9A  2021-02-28 23:02:26  28.1  55.9 
 183276  452-9A  2021-02-28 22:42:19  28.4  53.4 
 183270  452-9A  2021-02-28 22:22:14  31.8  86.7 
 183264  452-9A  2021-02-28 22:02:07  31.8  86.9 
 183253  452-9A  2021-02-28 21:21:55  32.0  86.8 
 183247  452-9A  2021-02-28 21:01:51  32.1  86.6 
 183241  452-9A  2021-02-28 20:41:46  32.2  86.4 
 183235  452-9A  2021-02-28 20:21:40  32.2  86.4 
 183229  452-9A  2021-02-28 20:01:35  32.4  84.7 
 183223  452-9A  2021-02-28 19:41:31  32.5  84.2 
 183217  452-9A  2021-02-28 19:21:27  32.5  84.4 
 183211  452-9A  2021-02-28 19:01:22  32.8  83.4 
 183205  452-9A  2021-02-28 18:41:19  32.8  82.9 
 183199  452-9A  2021-02-28 18:21:14  32.8  83.0 
 183193  452-9A  2021-02-28 18:01:05  32.9  81.6 
 183187  452-9A  2021-02-28 17:41:00  33.0  81.0 
 183181  452-9A  2021-02-28 17:20:56  33.0  81.1 
 183175  452-9A  2021-02-28 17:00:50  33.0  80.1 
 183169  452-9A  2021-02-28 16:40:47  32.9  79.7 
 183162  452-9A  2021-02-28 16:20:42  32.9  79.8 
 183155  452-9A  2021-02-28 16:00:39  32.8  79.8 
 183148  452-9A  2021-02-28 15:40:33  32.8  79.9 
 183141  452-9A  2021-02-28 15:20:25  32.7  79.9 

Data every 20 minute.


Data of room  452-9A


Data every 20 minute.

  Show Graph